Time;durP1;ratioP1;P1;durP2;ratioP2;P2;SDS_P1;SDS_P2;PMS_P1;PMS_P2;Temp;Humidity;BMP_temperature;BMP_pressure;BME280_temperature;BME280_humidity;BME280_pressure;Samples;Min_cycle;Max_cycle;Signal;HPM_P1;HPM_P2
2022/12/17 13:07:18;;;;;;;66.37;27.90;;;-3.10;99.90;;;;;;8369541;28;20384;-76
2022/12/17 13:11:37;;;;;;;69.80;29.53;;;-3.10;99.90;;;;;;8367809;28;20235;-80
2022/12/17 13:15:45;;;;;;;72.83;28.30;;;-3.10;99.90;;;;;;8371106;28;20255;-80
2022/12/17 13:19:57;;;;;;;67.27;28.37;;;-3.10;99.90;;;;;;8374241;28;20442;-76
2022/12/17 13:24:09;;;;;;;64.77;28.97;;;-3.10;97.00;;;;;;8373091;28;20189;-82
2022/12/17 13:28:29;;;;;;;73.73;28.87;;;-3.10;99.90;;;;;;8383027;28;20185;-78
2022/12/17 13:32:38;;;;;;;58.47;26.53;;;-3.10;92.70;;;;;;8388230;28;20219;-76
2022/12/17 13:36:47;;;;;;;62.53;26.33;;;-3.00;36.40;;;;;;8376353;28;20197;-80
2022/12/17 13:41:09;;;;;;;60.47;25.37;;;-3.00;3.30;;;;;;8373001;28;20288;-76
2022/12/17 13:45:20;;;;;;;65.63;25.60;;;-3.00;1.00;;;;;;8368437;28;20260;-76
2022/12/17 13:49:20;;;;;;;55.30;24.00;;;-3.00;1.00;;;;;;8365959;28;20187;-80
2022/12/17 13:53:21;;;;;;;53.70;25.17;;;-3.00;1.00;;;;;;8373825;28;20273;-80
2022/12/17 13:57:24;;;;;;;68.30;27.50;;;-3.00;1.00;;;;;;8365129;28;20229;-77
2022/12/17 14:01:25;;;;;;;55.87;24.60;;;-3.00;1.00;;;;;;8366502;28;20210;-76
2022/12/17 14:05:32;;;;;;;56.57;24.53;;;-3.10;1.00;;;;;;8367756;28;20245;-82
2022/12/17 14:09:39;;;;;;;61.53;24.60;;;-3.10;1.00;;;;;;8373295;28;20238;-79
2022/12/17 14:13:45;;;;;;;57.43;23.63;;;-3.20;1.00;;;;;;8364642;28;20243;-81
2022/12/17 14:17:48;;;;;;;63.43;25.17;;;-3.20;1.00;;;;;;8368309;28;20220;-78
2022/12/17 14:21:50;;;;;;;60.20;24.67;;;-3.30;1.00;;;;;;8364266;28;20213;-78
2022/12/17 14:25:51;;;;;;;53.27;24.50;;;-3.30;1.00;;;;;;8368849;28;20296;-80
2022/12/17 14:29:52;;;;;;;57.37;23.47;;;-3.30;1.00;;;;;;8370086;28;20189;-78
2022/12/17 14:34:07;;;;;;;63.43;26.87;;;-3.40;1.00;;;;;;8371374;28;20303;-80
2022/12/17 14:38:17;;;;;;;69.83;26.07;;;-3.40;1.00;;;;;;8370923;28;20217;-77
2022/12/17 14:42:24;;;;;;;69.53;25.40;;;-3.40;1.00;;;;;;8365025;28;20637;-79
2022/12/17 14:46:28;;;;;;;62.03;25.90;;;-3.40;1.00;;;;;;8369423;28;20250;-76
2022/12/17 14:50:32;;;;;;;72.33;27.53;;;-3.40;30.60;;;;;;8365028;28;20224;-79
2022/12/17 14:54:33;;;;;;;63.40;25.10;;;-3.40;34.80;;;;;;8369147;28;20319;-76
2022/12/17 14:58:44;;;;;;;67.03;26.57;;;-3.50;99.90;;;;;;8368212;28;20224;-76
2022/12/17 15:02:50;;;;;;;66.63;25.87;;;-3.50;85.30;;;;;;8368030;28;20205;-79
2022/12/17 15:06:54;;;;;;;68.07;23.80;;;-3.50;99.90;;;;;;8368246;28;20229;-76
2022/12/17 15:10:58;;;;;;;58.73;23.20;;;-3.50;15.80;;;;;;8371252;28;20197;-78
2022/12/17 15:14:59;;;;;;;57.53;22.60;;;-3.50;1.00;;;;;;8366559;28;20192;-80
2022/12/17 15:19:01;;;;;;;57.43;22.03;;;-3.50;39.10;;;;;;8370171;28;20225;-80
2022/12/17 15:23:02;;;;;;;56.23;23.07;;;-3.50;29.80;;;;;;8370454;28;20315;-80
2022/12/17 15:27:03;;;;;;;72.17;24.43;;;-3.60;1.00;;;;;;8380658;28;20188;-77
2022/12/17 15:31:04;;;;;;;67.03;27.10;;;-3.60;16.60;;;;;;8366117;28;20193;-80
2022/12/17 15:35:05;;;;;;;60.13;23.97;;;-3.60;99.30;;;;;;8365487;28;20262;-76
2022/12/17 15:39:08;;;;;;;58.60;22.37;;;-3.60;99.90;;;;;;8372465;28;20181;-80
2022/12/17 15:43:11;;;;;;;55.67;22.33;;;-3.60;99.90;;;;;;8365750;28;20208;-80
2022/12/17 15:47:11;;;;;;;61.23;22.60;;;-3.70;92.70;;;;;;8365403;28;20193;-80
2022/12/17 15:51:12;;;;;;;59.70;23.13;;;-3.70;99.90;;;;;;8367597;28;20572;-79
2022/12/17 15:55:14;;;;;;;58.03;24.47;;;-3.80;99.90;;;;;;8370342;28;20185;-76
2022/12/17 15:59:15;;;;;;;53.67;20.63;;;-3.80;99.90;;;;;;8370949;28;20205;-77
2022/12/17 16:03:16;;;;;;;49.33;21.33;;;-3.80;99.90;;;;;;8368133;28;20192;-80
2022/12/17 16:07:17;;;;;;;47.83;17.77;;;-3.80;99.90;;;;;;8371535;28;20181;-79
2022/12/17 16:11:18;;;;;;;57.73;23.30;;;-3.80;98.70;;;;;;8373552;28;20633;-76
2022/12/17 16:15:18;;;;;;;52.13;19.83;;;-3.90;99.90;;;;;;8368051;28;20326;-79
2022/12/17 16:19:22;;;;;;;60.47;20.20;;;-3.90;95.90;;;;;;8373832;28;20227;-80
2022/12/17 16:23:23;;;;;;;44.90;18.60;;;-3.90;99.90;;;;;;8385321;28;20219;-80
2022/12/17 16:27:24;;;;;;;44.53;18.17;;;-3.90;99.90;;;;;;8380530;28;20189;-78
2022/12/17 16:31:25;;;;;;;43.50;18.93;;;-4.00;99.90;;;;;;8375368;28;20224;-79
2022/12/17 16:35:29;;;;;;;34.50;14.13;;;-4.00;99.90;;;;;;8375672;28;20204;-78
2022/12/17 16:39:30;;;;;;;32.60;14.90;;;-4.00;99.90;;;;;;8375968;28;20186;-81
2022/12/17 16:43:35;;;;;;;39.47;14.83;;;-4.00;99.90;;;;;;8360652;28;20216;-77
2022/12/17 16:47:36;;;;;;;37.27;13.23;;;-4.00;99.90;;;;;;8365371;28;20204;-76
2022/12/17 16:51:39;;;;;;;33.00;12.80;;;-4.00;99.90;;;;;;8367740;28;20193;-76
2022/12/17 16:55:46;;;;;;;27.93;12.67;;;-4.00;99.90;;;;;;8366106;28;20219;-79
2022/12/17 16:59:47;;;;;;;31.60;12.87;;;-4.00;95.70;;;;;;8374747;28;20206;-82
2022/12/17 17:03:48;;;;;;;39.93;15.13;;;-4.00;99.90;;;;;;8364416;28;20211;-80
2022/12/17 17:07:49;;;;;;;32.67;14.80;;;-4.10;94.80;;;;;;8366454;28;20255;-76
2022/12/17 17:11:53;;;;;;;32.20;13.33;;;-4.10;71.60;;;;;;8362890;28;20188;-80
2022/12/17 17:15:54;;;;;;;30.20;11.87;;;-4.20;85.90;;;;;;8367641;28;20276;-80
2022/12/17 17:19:55;;;;;;;33.93;13.27;;;-4.20;99.90;;;;;;8365794;28;20212;-80
2022/12/17 17:24:00;;;;;;;32.13;13.20;;;-4.30;99.90;;;;;;8367475;28;20193;-80
2022/12/17 17:28:01;;;;;;;33.03;13.97;;;-4.40;99.90;;;;;;8378659;28;20193;-78
2022/12/17 17:32:01;;;;;;;26.87;11.87;;;-4.40;1.00;;;;;;8361820;28;20218;-75
2022/12/17 17:36:03;;;;;;;28.17;11.60;;;-4.30;30.20;;;;;;8364176;28;20201;-79
2022/12/17 17:40:05;;;;;;;30.70;14.00;;;-4.30;91.60;;;;;;8371520;28;20216;-77
2022/12/17 17:44:10;;;;;;;30.90;12.57;;;-4.30;59.90;;;;;;8366711;28;20185;-79
2022/12/17 17:48:10;;;;;;;39.10;14.13;;;-4.40;99.90;;;;;;8382276;28;20180;-76
2022/12/17 17:52:11;;;;;;;33.30;13.43;;;-4.30;1.00;;;;;;8366523;28;20189;-81
2022/12/17 17:56:17;;;;;;;43.23;13.40;;;-4.40;1.00;;;;;;8366326;28;20193;-77
2022/12/17 18:00:18;;;;;;;29.37;13.23;;;-4.30;99.90;;;;;;8362893;28;20303;-77
2022/12/17 18:04:23;;;;;;;33.63;13.17;;;-4.40;1.00;;;;;;8360254;28;20190;-76
2022/12/17 18:08:23;;;;;;;29.97;11.67;;;-4.40;1.00;;;;;;8369617;28;20167;-80
2022/12/17 18:16:47;;;;;;;41.73;14.60;;;-4.30;99.90;;;;;;8365866;28;20209;-80
2022/12/17 18:20:48;;;;;;;35.70;13.23;;;-4.30;99.90;;;;;;8368524;28;20213;-80
2022/12/17 18:24:49;;;;;;;40.87;14.13;;;-4.30;99.90;;;;;;8365786;28;20385;-79
2022/12/17 18:28:50;;;;;;;27.73;12.13;;;-4.20;1.00;;;;;;8365640;28;20189;-79
2022/12/17 18:32:51;;;;;;;30.97;12.17;;;-4.20;1.00;;;;;;8367108;28;21677;-80
2022/12/17 18:36:53;;;;;;;31.53;11.23;;;-4.10;1.00;;;;;;8364480;28;20217;-79
2022/12/17 18:40:53;;;;;;;32.70;12.87;;;-4.10;99.90;;;;;;8364258;28;20315;-77
2022/12/17 18:44:54;;;;;;;34.27;13.83;;;-4.10;99.90;;;;;;8363409;28;20211;-77
2022/12/17 18:49:01;;;;;;;34.90;14.13;;;-4.10;99.90;;;;;;8369008;28;20217;-78
2022/12/17 18:53:02;;;;;;;28.17;12.37;;;-4.10;89.30;;;;;;8363868;28;20189;-77
2022/12/17 18:57:03;;;;;;;36.07;16.03;;;-4.10;99.90;;;;;;8370232;28;20220;-77
2022/12/17 19:01:05;;;;;;;34.13;13.13;;;-4.10;99.90;;;;;;8363469;28;20212;-80
2022/12/17 19:05:06;;;;;;;35.63;12.70;;;-4.10;99.90;;;;;;8364425;28;20189;-76
2022/12/17 19:09:15;;;;;;;40.23;14.33;;;-4.10;99.90;;;;;;8368912;28;20255;-77
2022/12/17 19:13:16;;;;;;;36.70;13.40;;;-4.10;99.90;;;;;;8365774;28;20193;-80
2022/12/17 19:17:17;;;;;;;26.50;11.67;;;-4.00;99.90;;;;;;8361633;28;20600;-78
2022/12/17 19:21:19;;;;;;;29.07;12.23;;;-4.00;99.90;;;;;;8369888;28;20235;-80
2022/12/17 19:25:19;;;;;;;25.87;11.03;;;-3.90;99.90;;;;;;8371295;28;20284;-77
2022/12/17 19:29:22;;;;;;;36.57;13.47;;;-3.90;1.00;;;;;;8372409;28;20178;-78
2022/12/17 19:33:23;;;;;;;31.93;12.27;;;-3.80;99.90;;;;;;8369871;28;20287;-76
2022/12/17 19:37:24;;;;;;;27.40;11.67;;;-3.80;99.90;;;;;;8374699;28;20199;-79
2022/12/17 19:41:27;;;;;;;26.80;10.77;;;-3.90;99.90;;;;;;8375438;28;20285;-80
2022/12/17 19:45:30;;;;;;;30.77;10.80;;;-3.90;1.00;;;;;;8357872;28;20221;-78
2022/12/17 19:49:34;;;;;;;30.80;11.33;;;-3.80;99.90;;;;;;8330919;28;20260;-80
2022/12/17 19:53:37;;;;;;;21.53;9.83;;;-3.80;99.90;;;;;;8336378;28;20233;-78
2022/12/17 19:57:38;;;;;;;25.27;11.03;;;-3.80;99.90;;;;;;8354395;28;20290;-79
2022/12/17 20:01:47;;;;;;;28.60;10.30;;;-3.80;99.90;;;;;;8381219;28;20232;-80
2022/12/17 20:05:48;;;;;;;28.40;10.27;;;-3.70;99.90;;;;;;8363331;28;20264;-80
2022/12/17 20:09:49;;;;;;;29.30;10.90;;;-3.70;1.00;;;;;;8370705;28;20185;-79
2022/12/17 20:14:00;;;;;;;28.23;10.10;;;-3.70;1.00;;;;;;8367298;28;21744;-77
2022/12/17 20:18:00;;;;;;;21.50;9.77;;;-3.70;1.00;;;;;;8384673;28;20181;-80
2022/12/17 20:22:03;;;;;;;25.63;9.50;;;-3.60;1.00;;;;;;8368498;28;20281;-79
2022/12/17 20:26:07;;;;;;;26.87;10.77;;;-3.60;1.00;;;;;;8380048;28;20214;-80
2022/12/17 20:30:09;;;;;;;24.33;9.70;;;-3.50;1.00;;;;;;8370399;28;20227;-78
2022/12/17 20:34:13;;;;;;;25.53;9.50;;;-3.50;99.90;;;;;;8367731;28;20275;-76
2022/12/17 20:38:16;;;;;;;19.87;9.17;;;-3.40;99.90;;;;;;8371329;28;20358;-76
2022/12/17 20:42:17;;;;;;;30.60;10.57;;;-3.40;99.90;;;;;;8363976;28;20262;-75
2022/12/17 20:46:20;;;;;;;24.43;9.93;;;-3.40;99.90;;;;;;8370350;28;20204;-79
2022/12/17 20:50:21;;;;;;;24.73;10.30;;;-3.40;1.00;;;;;;8375376;28;20189;-78
2022/12/17 20:54:24;;;;;;;23.50;10.63;;;-3.50;1.00;;;;;;8364983;28;20188;-81
2022/12/17 20:58:25;;;;;;;23.43;10.53;;;-3.50;1.00;;;;;;8382392;28;20210;-77
2022/12/17 21:02:26;;;;;;;27.80;10.67;;;-3.60;11.20;;;;;;8378618;28;20221;-79
2022/12/17 21:06:34;;;;;;;24.90;10.37;;;-3.50;46.70;;;;;;8364735;28;20304;-77
2022/12/17 21:10:34;;;;;;;21.83;8.90;;;-3.50;49.10;;;;;;8364455;28;20181;-76
2022/12/17 21:14:36;;;;;;;18.40;9.07;;;-3.50;1.00;;;;;;8369258;28;20189;-80
2022/12/17 21:18:37;;;;;;;18.93;8.43;;;-3.40;1.00;;;;;;8365918;28;20186;-77
2022/12/17 21:22:39;;;;;;;22.67;8.77;;;-3.40;1.00;;;;;;8362995;28;20210;-78
2022/12/17 21:26:42;;;;;;;22.97;10.00;;;-3.40;1.00;;;;;;8370707;28;20178;-81
2022/12/17 21:30:45;;;;;;;23.57;9.57;;;-3.30;1.00;;;;;;8374319;28;20210;-80
2022/12/17 21:34:48;;;;;;;21.07;9.30;;;-3.20;1.00;;;;;;8374204;28;20287;-78
2022/12/17 21:38:50;;;;;;;21.67;9.37;;;-3.20;99.90;;;;;;8365403;28;20187;-78
2022/12/17 21:43:00;;;;;;;17.37;8.33;;;-3.20;99.90;;;;;;8366047;28;20209;-80
2022/12/17 21:47:01;;;;;;;16.50;8.43;;;-3.10;99.90;;;;;;8369164;28;20180;-81
2022/12/17 21:51:07;;;;;;;18.40;8.43;;;-3.20;99.90;;;;;;8370005;28;20279;-79
2022/12/17 21:55:08;;;;;;;19.70;8.73;;;-3.20;99.90;;;;;;8378225;28;20225;-78
2022/12/17 21:59:10;;;;;;;24.03;9.13;;;-3.20;99.90;;;;;;8368242;28;20283;-78
2022/12/17 22:03:11;;;;;;;21.93;9.43;;;-3.20;99.90;;;;;;8365838;28;20305;-79
2022/12/17 22:07:12;;;;;;;25.93;9.87;;;-3.20;99.90;;;;;;8364682;28;20182;-78
2022/12/17 22:11:15;;;;;;;20.67;10.03;;;-3.20;99.90;;;;;;8380229;28;20193;-78
2022/12/17 22:15:17;;;;;;;21.50;7.80;;;-3.20;99.90;;;;;;8366483;28;20217;-76
2022/12/17 22:19:21;;;;;;;20.10;8.73;;;-3.20;99.90;;;;;;8362061;28;20197;-78
2022/12/17 22:23:22;;;;;;;19.53;9.27;;;-3.20;99.90;;;;;;8368546;28;20213;-78
2022/12/17 22:27:23;;;;;;;20.60;8.50;;;-3.20;71.60;;;;;;8366538;28;20273;-77
2022/12/17 22:35:45;;;;;;;21.00;8.40;;;-3.40;99.90;;;;;;8365528;28;20301;-79
2022/12/17 22:39:45;;;;;;;21.77;8.87;;;-3.40;99.90;;;;;;8363416;28;20717;-80
2022/12/17 22:43:46;;;;;;;24.13;8.40;;;-3.30;99.90;;;;;;8378236;28;20177;-77
2022/12/17 22:47:47;;;;;;;20.87;9.53;;;-3.40;91.60;;;;;;8363358;28;20178;-80
2022/12/17 22:51:48;;;;;;;19.17;8.53;;;-3.40;99.90;;;;;;8362197;28;20192;-78
2022/12/17 22:55:50;;;;;;;18.13;8.63;;;-3.30;93.80;;;;;;8371230;28;20189;-79
2022/12/17 22:59:54;;;;;;;20.33;8.70;;;-3.30;56.20;;;;;;8367887;28;20214;-78
2022/12/17 23:03:57;;;;;;;21.37;8.97;;;-3.30;36.30;;;;;;8365495;28;20198;-79
2022/12/17 23:07:58;;;;;;;18.23;8.17;;;-3.30;1.10;;;;;;8378430;28;20194;-78
2022/12/17 23:12:49;;;;;;;17.30;8.10;;;-3.30;1.00;;;;;;8368922;28;20189;-76
2022/12/17 23:16:23;;;;;;;20.17;9.10;;;-3.40;1.00;;;;;;8359082;28;20192;-74
2022/12/17 23:20:24;;;;;;;20.10;8.53;;;-3.60;1.00;;;;;;8373964;28;20205;-78
2022/12/17 23:24:25;;;;;;;21.87;9.37;;;-3.80;99.90;;;;;;8362959;28;20186;-78
2022/12/17 23:28:26;;;;;;;20.30;8.77;;;-3.70;99.90;;;;;;8359248;28;20194;-76
2022/12/17 23:32:27;;;;;;;23.17;8.83;;;-3.70;99.90;;;;;;8366822;28;20192;-80
2022/12/17 23:36:28;;;;;;;20.70;8.40;;;-3.60;99.90;;;;;;8364721;28;20291;-81
2022/12/17 23:40:30;;;;;;;22.63;9.50;;;-3.60;99.90;;;;;;8365277;28;20216;-81
2022/12/17 23:44:31;;;;;;;21.50;9.27;;;-3.50;99.90;;;;;;8367990;28;21004;-81
2022/12/17 23:48:37;;;;;;;20.87;9.33;;;-3.50;99.90;;;;;;8365896;28;20234;-80
2022/12/17 23:52:38;;;;;;;21.60;10.90;;;-3.50;99.90;;;;;;8370734;28;20288;-78
2022/12/17 23:56:39;;;;;;;24.43;11.30;;;-3.40;99.90;;;;;;8379559;28;20220;-77
